Newport (Isle of Wight), United Kingdom
Current Conditions -  °F | °C
As of 10:20 PM on Sunday 19 Oct 2014 (Local Time) from EGHI Reporting Station
Few Clouds Few Clouds  
Wind Chill: 13°   Ceiling: Unl
Heat Index: 13°   Visibility: 6mi
Dew Point: 11°   Wind: 8mph
Humidity: 88%   Direction: 250°WSW
Pressure: 30.03"   Gusts: NA
Location:  50.7°N, 1.29°W
Report Text: EGHI 192120Z 25007KT 220V280 9999 FEW018 13/11 Q1017
Loading
Personal Weather Stations






























Interactive Weather Map
Tropical Storm Tracking
New forecast layout! Learn more

10-Day Weather Forecast

Advertisements
Track Severe Weather on mobile